createdAt,value
2018-01-21T00:02:22.485Z,4.20
2018-01-21T00:04:48.708Z,3.75
2018-01-21T00:07:14.961Z,1.60
2018-01-21T00:09:41.208Z,1.80
2018-01-21T00:12:07.483Z,2.78
2018-01-21T00:14:33.726Z,1.58
2018-01-21T00:17:00.006Z,1.90
2018-01-21T00:19:26.228Z,1.85
2018-01-21T00:21:59.399Z,2.70
2018-01-21T00:24:26.408Z,1.90
2018-01-21T00:26:52.662Z,1.40
2018-01-21T00:29:18.925Z,2.03
2018-01-21T00:31:45.910Z,2.00
2018-01-21T00:34:12.166Z,2.28
2018-01-21T00:36:38.405Z,2.78
2018-01-21T00:39:04.652Z,3.00
2018-01-21T00:41:30.907Z,1.73
2018-01-21T00:43:57.131Z,4.62
2018-01-21T00:46:23.400Z,1.83
2018-01-21T00:48:49.620Z,2.40
2018-01-21T00:51:15.835Z,1.80
2018-01-21T00:53:42.092Z,2.50
2018-01-21T00:56:08.322Z,2.58
2018-01-21T00:58:41.540Z,4.62
2018-01-21T01:01:07.780Z,3.03
2018-01-21T01:03:34.056Z,4.30
2018-01-21T01:06:00.292Z,2.42
2018-01-21T01:08:26.563Z,2.60
2018-01-21T01:10:53.565Z,3.53
2018-01-21T01:13:19.824Z,3.28
2018-01-21T01:15:46.109Z,2.45
2018-01-21T01:18:13.104Z,2.40
2018-01-21T01:20:39.384Z,2.42
2018-01-21T01:23:05.616Z,3.03
2018-01-21T01:25:31.879Z,3.00
2018-01-21T01:27:58.856Z,2.58
2018-01-21T01:30:25.113Z,3.40
2018-01-21T01:32:51.376Z,2.75
2018-01-21T01:35:17.632Z,3.20
2018-01-21T01:37:43.901Z,3.10
2018-01-21T01:40:10.862Z,3.45
2018-01-21T01:42:37.168Z,3.70
2018-01-21T01:45:03.405Z,2.75
2018-01-21T01:47:29.665Z,2.97
2018-01-21T01:49:55.919Z,3.53
2018-01-21T01:52:29.796Z,3.47
2018-01-21T01:54:56.070Z,3.62
2018-01-21T01:57:22.297Z,5.62
2018-01-21T01:59:48.534Z,3.60
2018-01-21T02:02:14.791Z,3.35
2018-01-21T02:04:41.019Z,3.95
2018-01-21T02:07:07.256Z,4.30
2018-01-21T02:09:33.536Z,4.07
2018-01-21T02:12:00.776Z,3.28
2018-01-21T02:14:27.010Z,4.25
2018-01-21T02:16:53.241Z,3.90
2018-01-21T02:19:19.503Z,5.10
2018-01-21T02:21:45.800Z,3.47
2018-01-21T02:24:12.036Z,3.20
2018-01-21T02:26:38.262Z,4.90
2018-01-21T02:29:04.500Z,3.67
2018-01-21T02:31:30.763Z,5.30
2018-01-21T02:33:56.989Z,4.45
2018-01-21T02:36:23.248Z,5.90
2018-01-21T02:38:49.530Z,4.47
2018-01-21T02:41:16.513Z,4.82
2018-01-21T02:43:43.017Z,6.43
2018-01-21T02:46:09.255Z,4.12
2018-01-21T02:48:35.506Z,6.00
2018-01-21T02:51:01.781Z,6.22
2018-01-21T02:53:28.008Z,4.62
2018-01-21T02:55:54.987Z,6.93
2018-01-21T02:58:21.242Z,6.40
2018-01-21T03:00:47.497Z,8.65
2018-01-21T03:03:13.710Z,8.25
2018-01-21T03:05:39.985Z,6.47
2018-01-21T03:08:06.236Z,5.78
2018-01-21T03:10:32.485Z,7.57
2018-01-21T03:12:58.745Z,7.32
2018-01-21T03:15:25.743Z,8.57
2018-01-21T03:17:51.992Z,5.43
2018-01-21T03:20:18.232Z,7.43
2018-01-21T03:22:44.500Z,6.82
2018-01-21T03:25:10.742Z,6.75
2018-01-21T03:27:36.974Z,8.00
2018-01-21T03:30:03.271Z,8.63
2018-01-21T03:32:29.503Z,7.90
2018-01-21T03:34:56.527Z,9.45
2018-01-21T03:37:22.736Z,8.05
2018-01-21T03:39:48.977Z,10.05
2018-01-21T03:42:15.216Z,7.53
2018-01-21T03:44:41.467Z,9.10
2018-01-21T03:47:07.730Z,7.75
2018-01-21T03:49:33.966Z,8.75
2018-01-21T03:52:00.224Z,10.15
2018-01-21T03:54:26.487Z,9.23
2018-01-21T03:56:53.454Z,8.48
2018-01-21T03:59:19.687Z,10.65
2018-01-21T04:01:45.912Z,7.68
2018-01-21T04:04:12.898Z,8.63
2018-01-21T04:06:39.123Z,7.93
2018-01-21T04:09:06.898Z,9.07
2018-01-21T04:11:33.142Z,6.70
2018-01-21T04:13:59.378Z,6.57
2018-01-21T04:16:27.198Z,7.95
2018-01-21T04:18:53.426Z,8.20
2018-01-21T04:21:19.652Z,9.90
2018-01-21T04:23:45.878Z,9.82
2018-01-21T04:26:12.862Z,7.20
2018-01-21T04:28:39.121Z,6.80
2018-01-21T04:31:05.371Z,7.40
2018-01-21T04:33:31.635Z,8.73
2018-01-21T04:35:57.880Z,10.90
2018-01-21T04:38:24.888Z,12.37
2018-01-21T04:40:51.162Z,10.98
2018-01-21T04:43:17.404Z,9.02
2018-01-21T04:45:43.652Z,6.78
2018-01-21T04:48:09.900Z,6.40
2018-01-21T04:50:36.123Z,10.90
2018-01-21T04:53:02.373Z,6.75
2018-01-21T04:55:28.607Z,6.60
2018-01-21T04:57:54.866Z,9.88
2018-01-21T05:00:21.845Z,4.22
2018-01-21T05:02:48.095Z,5.93
2018-01-21T05:05:14.364Z,5.35
2018-01-21T05:07:40.619Z,5.68
2018-01-21T05:10:06.884Z,4.95
2018-01-21T05:12:33.877Z,5.93
2018-01-21T05:15:00.116Z,5.62
2018-01-21T05:17:26.365Z,5.30
2018-01-21T05:19:52.603Z,5.53
2018-01-21T05:22:18.914Z,6.20
2018-01-21T05:24:45.937Z,5.50
2018-01-21T05:27:12.228Z,6.07
2018-01-21T05:29:38.454Z,4.10
2018-01-21T05:32:05.444Z,6.00
2018-01-21T05:34:31.705Z,6.18
2018-01-21T05:36:57.972Z,4.20
2018-01-21T05:39:24.217Z,5.43
2018-01-21T05:41:50.461Z,6.40
2018-01-21T05:44:16.717Z,6.65
2018-01-21T05:46:43.713Z,5.45
2018-01-21T05:49:09.963Z,6.82
2018-01-21T05:51:36.219Z,6.55
2018-01-21T05:54:02.481Z,11.10
2018-01-21T05:56:28.716Z,5.80
2018-01-21T05:58:55.018Z,6.78
2018-01-21T06:01:21.248Z,5.30
2018-01-21T06:03:47.483Z,6.37
2018-01-21T06:06:13.738Z,6.05
2018-01-21T06:08:40.005Z,6.53
2018-01-21T06:11:06.233Z,5.60
2018-01-21T06:13:32.475Z,7.30
2018-01-21T06:15:58.732Z,5.72
2018-01-21T06:18:24.951Z,6.03
2018-01-21T06:20:51.228Z,6.30
2018-01-21T06:23:17.477Z,7.60
2018-01-21T06:25:43.696Z,8.63
2018-01-21T06:28:09.963Z,7.95
2018-01-21T06:30:36.964Z,5.62
2018-01-21T06:33:03.220Z,7.37
2018-01-21T06:35:29.515Z,7.22
2018-01-21T06:37:56.502Z,4.90
2018-01-21T06:40:22.726Z,3.87
2018-01-21T06:42:48.998Z,5.85
2018-01-21T06:45:15.253Z,5.65
2018-01-21T06:47:41.510Z,6.72
2018-01-21T06:50:07.769Z,6.60
2018-01-21T06:52:34.776Z,7.18
2018-01-21T06:55:01.034Z,6.68
2018-01-21T06:57:27.315Z,5.97
2018-01-21T06:59:54.288Z,7.15
2018-01-21T07:02:21.270Z,5.25
2018-01-21T07:04:47.527Z,7.28
2018-01-21T07:07:13.760Z,5.90
2018-01-21T07:09:40.031Z,7.25
2018-01-21T07:12:06.267Z,6.03
2018-01-21T07:14:32.529Z,6.72
2018-01-21T07:16:59.503Z,7.25
2018-01-21T07:19:25.782Z,8.00
2018-01-21T07:21:52.045Z,7.40
2018-01-21T07:24:18.295Z,7.62
2018-01-21T07:26:44.575Z,7.43
2018-01-21T07:29:10.790Z,7.53
2018-01-21T07:31:37.795Z,6.85
2018-01-21T07:34:04.027Z,11.23
2018-01-21T07:36:30.268Z,8.02
2018-01-21T07:38:56.482Z,4.45
2018-01-21T07:41:23.462Z,7.82
2018-01-21T07:43:49.712Z,5.40
2018-01-21T07:46:15.940Z,4.70
2018-01-21T07:48:42.190Z,5.25
2018-01-21T07:51:09.012Z,6.12
2018-01-21T07:53:35.247Z,5.82
2018-01-21T07:56:02.226Z,5.43
2018-01-21T07:58:28.458Z,6.15
2018-01-21T08:00:54.688Z,5.43
2018-01-21T08:03:21.696Z,3.85
2018-01-21T08:05:47.930Z,7.87
2018-01-21T08:08:14.192Z,5.93
2018-01-21T08:10:40.445Z,5.20
2018-01-21T08:13:06.690Z,7.35
2018-01-21T08:15:33.054Z,6.22
2018-01-21T08:18:00.046Z,6.37
2018-01-21T08:20:26.273Z,6.82
2018-01-21T08:22:52.529Z,5.05
2018-01-21T08:25:18.800Z,6.28
2018-01-21T08:27:45.055Z,6.68
2018-01-21T08:30:11.355Z,8.30
2018-01-21T08:32:37.568Z,5.53
2018-01-21T08:35:09.743Z,6.53
2018-01-21T08:37:54.951Z,5.50
2018-01-21T08:40:27.163Z,5.75
2018-01-21T08:42:53.459Z,7.30
2018-01-21T08:45:19.701Z,5.75
2018-01-21T08:47:45.937Z,3.70
2018-01-21T08:50:12.204Z,6.00
2018-01-21T08:52:38.458Z,5.87
2018-01-21T08:55:04.728Z,6.25
2018-01-21T08:57:30.971Z,4.32
2018-01-21T08:59:57.248Z,6.45
2018-01-21T09:02:23.516Z,6.45
2018-01-21T09:04:49.781Z,4.65
2018-01-21T09:07:16.047Z,7.32
2018-01-21T09:09:43.041Z,9.75
2018-01-21T09:12:09.310Z,5.78
2018-01-21T09:14:35.540Z,6.43
2018-01-21T09:17:01.800Z,7.03
2018-01-21T09:19:28.063Z,6.45
2018-01-21T09:21:54.305Z,6.28
2018-01-21T09:24:20.602Z,7.82
2018-01-21T09:26:46.874Z,6.53
2018-01-21T09:29:13.141Z,4.80
2018-01-21T09:31:40.127Z,6.28
2018-01-21T09:34:06.672Z,5.47
2018-01-21T09:36:32.911Z,4.18
2018-01-21T09:38:59.146Z,4.25
2018-01-21T09:41:25.397Z,5.15
2018-01-21T09:43:51.644Z,6.15
2018-01-21T09:46:17.925Z,6.18
2018-01-21T09:48:44.167Z,6.53
2018-01-21T09:51:10.458Z,6.25
2018-01-21T09:53:36.717Z,5.40
2018-01-21T09:56:02.985Z,6.20
2018-01-21T09:58:29.267Z,9.50
2018-01-21T10:00:55.513Z,6.37
2018-01-21T10:03:21.771Z,5.75
2018-01-21T10:05:48.032Z,6.53
2018-01-21T10:08:14.318Z,5.53
2018-01-21T10:10:41.344Z,7.32
2018-01-21T10:13:07.601Z,7.80
2018-01-21T10:15:33.914Z,9.77
2018-01-21T10:18:00.212Z,7.95
2018-01-21T10:20:27.201Z,8.95
2018-01-21T10:22:53.559Z,5.93
2018-01-21T10:25:19.828Z,6.90
2018-01-21T10:27:46.088Z,11.48
2018-01-21T10:30:13.121Z,6.65
2018-01-21T10:32:39.384Z,6.80
2018-01-21T10:35:05.638Z,6.18
2018-01-21T10:37:31.887Z,6.40
2018-01-21T10:39:58.133Z,11.60
2018-01-21T10:42:24.417Z,7.62
2018-01-21T10:44:50.707Z,7.53
2018-01-21T10:47:16.988Z,8.23
2018-01-21T10:49:43.249Z,7.03
2018-01-21T10:52:09.513Z,7.37
2018-01-21T10:54:36.555Z,10.55
2018-01-21T10:57:02.848Z,6.82
2018-01-21T10:59:29.091Z,17.35
2018-01-21T11:01:55.420Z,9.30
2018-01-21T11:04:21.681Z,8.35
2018-01-21T11:06:47.954Z,8.35
2018-01-21T11:09:14.268Z,8.30
2018-01-21T11:11:40.531Z,9.20
2018-01-21T11:14:06.797Z,6.22
2018-01-21T11:16:33.839Z,8.48
2018-01-21T11:19:00.100Z,5.90
2018-01-21T11:21:27.119Z,8.02
2018-01-21T11:23:53.416Z,8.98
2018-01-21T11:26:19.667Z,7.60
2018-01-21T11:28:45.966Z,7.15
2018-01-21T11:31:12.250Z,8.98
2018-01-21T11:33:38.561Z,9.73
2018-01-21T11:36:04.883Z,8.02
2018-01-21T11:38:31.159Z,9.63
2018-01-21T11:40:57.428Z,4.70
2018-01-21T11:43:23.793Z,6.25
2018-01-21T11:45:50.090Z,8.15
2018-01-21T11:48:16.440Z,5.05
2018-01-21T11:50:42.871Z,4.32
2018-01-21T11:53:09.184Z,21.37
2018-01-21T11:55:36.191Z,6.20
2018-01-21T11:58:02.559Z,7.95
2018-01-21T12:00:28.882Z,9.57
2018-01-21T12:02:55.354Z,6.40
2018-01-21T12:05:21.674Z,3.28
2018-01-21T12:07:47.967Z,10.45
2018-01-21T12:10:14.256Z,6.78
2018-01-21T12:12:40.658Z,5.45
2018-01-21T12:15:07.734Z,4.87
2018-01-21T12:17:34.071Z,8.45
2018-01-21T12:20:00.353Z,9.88
2018-01-21T12:22:26.622Z,4.82
2018-01-21T12:24:52.931Z,6.00
2018-01-21T12:27:19.265Z,4.55
2018-01-21T12:29:45.577Z,5.62
2018-01-21T12:32:11.875Z,5.45
2018-01-21T12:34:38.162Z,6.72
2018-01-21T12:37:04.456Z,6.07
2018-01-21T12:39:30.917Z,5.75
2018-01-21T12:41:57.248Z,6.75
2018-01-21T12:44:23.566Z,6.22
2018-01-21T12:46:49.863Z,7.47
2018-01-21T12:49:16.185Z,6.55
2018-01-21T12:51:42.428Z,7.75
2018-01-21T12:54:08.791Z,7.32
2018-01-21T12:56:35.100Z,7.95
2018-01-21T12:59:01.411Z,6.87
2018-01-21T13:01:27.714Z,8.48
2018-01-21T13:03:54.046Z,7.53
2018-01-21T13:06:20.355Z,7.72
2018-01-21T13:08:46.624Z,6.15
2018-01-21T13:11:12.907Z,5.45
2018-01-21T13:13:39.255Z,8.68
2018-01-21T13:16:05.566Z,7.60
2018-01-21T13:18:31.914Z,9.13
2018-01-21T13:20:58.304Z,8.35
2018-01-21T13:23:24.625Z,8.65
2018-01-21T13:25:51.680Z,10.63
2018-01-21T13:28:18.718Z,9.25
2018-01-21T13:30:45.042Z,9.38
2018-01-21T13:33:11.360Z,7.28
2018-01-21T13:35:37.715Z,8.32
2018-01-21T13:38:04.043Z,7.43
2018-01-21T13:40:30.341Z,8.43
2018-01-21T13:42:56.652Z,8.45
2018-01-21T13:45:23.041Z,6.50
2018-01-21T13:47:49.366Z,9.88
2018-01-21T13:50:16.408Z,10.10
2018-01-21T13:52:42.780Z,9.65
2018-01-21T13:55:09.927Z,7.70
2018-01-21T13:57:36.314Z,11.68
2018-01-21T14:00:02.703Z,7.97
2018-01-21T14:02:29.085Z,7.15
2018-01-21T14:04:55.525Z,8.65
2018-01-21T14:07:22.577Z,12.75
2018-01-21T14:09:48.967Z,9.35
2018-01-21T14:12:15.315Z,11.12
2018-01-21T14:14:41.631Z,8.85
2018-01-21T14:17:07.960Z,10.27
2018-01-21T14:19:34.298Z,11.15
2018-01-21T14:22:00.641Z,15.55
2018-01-21T14:24:26.940Z,7.07
2018-01-21T14:26:53.216Z,8.32
2018-01-21T14:29:19.553Z,6.05
2018-01-21T14:31:46.617Z,9.93
2018-01-21T14:34:12.933Z,11.05
2018-01-21T14:36:39.253Z,8.35
2018-01-21T14:39:05.585Z,7.35
2018-01-21T14:41:31.913Z,7.37
2018-01-21T14:43:58.252Z,6.43
2018-01-21T14:46:24.578Z,7.80
2018-01-21T14:48:51.651Z,8.25
2018-01-21T14:51:17.992Z,6.07
2018-01-21T14:53:45.095Z,7.57
2018-01-21T14:56:11.427Z,7.80
2018-01-21T14:58:37.768Z,8.45
2018-01-21T15:01:04.150Z,6.22
2018-01-21T15:03:30.447Z,11.85
2018-01-21T15:05:56.842Z,5.10
2018-01-21T15:08:23.160Z,8.52
2018-01-21T15:10:49.523Z,8.48
2018-01-21T15:13:15.877Z,9.13
2018-01-21T15:15:42.228Z,6.97
2018-01-21T15:18:08.537Z,6.03
2018-01-21T15:20:34.886Z,15.88
2018-01-21T15:23:01.322Z,10.43
2018-01-21T15:25:27.661Z,8.88
2018-01-21T15:27:54.029Z,9.30
2018-01-21T15:30:20.389Z,8.50
2018-01-21T15:32:46.736Z,17.62
2018-01-21T15:35:13.075Z,10.32
2018-01-21T15:37:40.176Z,9.45
2018-01-21T15:40:06.603Z,8.70
2018-01-21T15:42:32.973Z,8.07
2018-01-21T15:44:59.350Z,22.70
2018-01-21T15:47:25.693Z,8.13
2018-01-21T15:49:52.025Z,11.30
2018-01-21T15:52:18.375Z,8.30
2018-01-21T15:54:44.726Z,9.40
2018-01-21T15:57:11.566Z,8.02
2018-01-21T15:59:37.902Z,7.30
2018-01-21T16:02:04.227Z,7.85
2018-01-21T16:04:30.558Z,10.45
2018-01-21T16:06:56.882Z,9.95
2018-01-21T16:09:23.248Z,7.97
2018-01-21T16:11:49.575Z,7.80
2018-01-21T16:14:15.895Z,9.77
2018-01-21T16:16:42.269Z,6.95
2018-01-21T16:19:08.661Z,10.45
2018-01-21T16:21:35.121Z,8.63
2018-01-21T16:24:02.209Z,8.50
2018-01-21T16:26:28.616Z,7.68
2018-01-21T16:28:55.027Z,5.47
2018-01-21T16:31:21.366Z,7.32
2018-01-21T16:33:47.760Z,6.32
2018-01-21T16:36:15.739Z,7.07
2018-01-21T16:38:57.670Z,8.48
2018-01-21T16:41:24.023Z,12.70
2018-01-21T16:43:50.361Z,7.62
2018-01-21T16:46:16.716Z,6.25
2018-01-21T16:48:43.014Z,9.27
2018-01-21T16:51:10.176Z,4.62
2018-01-21T16:53:36.536Z,7.50
2018-01-21T16:56:03.578Z,9.82
2018-01-21T16:58:30.621Z,8.70
2018-01-21T17:00:56.962Z,7.37
2018-01-21T17:03:23.280Z,10.25
2018-01-21T17:05:49.603Z,9.73
2018-01-21T17:08:15.938Z,9.70
2018-01-21T17:10:42.315Z,11.65
2018-01-21T17:13:08.655Z,18.25
2018-01-21T17:15:35.054Z,14.10
2018-01-21T17:18:02.072Z,14.82
2018-01-21T17:20:28.465Z,17.25
2018-01-21T17:22:54.880Z,19.95
2018-01-21T17:25:21.188Z,20.05
2018-01-21T17:27:47.633Z,19.33
2018-01-21T17:30:13.981Z,18.40
2018-01-21T17:32:40.353Z,17.10
2018-01-21T17:35:06.689Z,11.30
2018-01-21T17:37:33.800Z,15.25
2018-01-21T17:40:00.169Z,11.55
2018-01-21T17:42:26.508Z,17.50
2018-01-21T17:44:52.829Z,10.50
2018-01-21T17:47:19.169Z,17.85
2018-01-21T17:49:45.515Z,17.05
2018-01-21T17:52:11.863Z,56.97
2018-01-21T17:54:38.196Z,22.20
2018-01-21T17:57:04.552Z,24.20
2018-01-21T17:59:30.930Z,19.17
2018-01-21T18:01:57.320Z,16.55
2018-01-21T18:04:23.682Z,16.73
2018-01-21T18:06:50.031Z,14.18
2018-01-21T18:09:16.406Z,14.65
2018-01-21T18:11:42.747Z,17.17
2018-01-21T18:14:09.224Z,23.90
2018-01-21T18:16:36.302Z,50.85
2018-01-21T18:19:02.663Z,20.42
2018-01-21T18:21:29.116Z,14.32
2018-01-21T18:23:55.490Z,19.25
2018-01-21T18:26:21.786Z,26.80
2018-01-21T18:28:48.140Z,19.37
2018-01-21T18:31:14.499Z,14.73
2018-01-21T18:33:40.886Z,11.50
2018-01-21T18:36:07.991Z,16.20
2018-01-21T18:38:34.399Z,16.05
2018-01-21T18:41:01.498Z,42.13
2018-01-21T18:43:27.864Z,34.92
2018-01-21T18:45:54.242Z,25.60
2018-01-21T18:48:21.353Z,14.15
2018-01-21T18:50:47.717Z,28.17
2018-01-21T18:53:14.017Z,20.40
2018-01-21T18:55:40.379Z,21.10
2018-01-21T18:58:06.769Z,22.10
2018-01-21T19:00:33.858Z,19.60
2018-01-21T19:03:00.247Z,19.45
2018-01-21T19:05:26.615Z,19.90
2018-01-21T19:07:53.721Z,18.30
2018-01-21T19:10:20.058Z,21.98
2018-01-21T19:12:46.409Z,19.35
2018-01-21T19:15:13.149Z,21.52
2018-01-21T19:17:39.521Z,18.58
2018-01-21T19:20:06.186Z,24.55
2018-01-21T19:22:32.558Z,16.02
2018-01-21T19:24:59.698Z,15.82
2018-01-21T19:27:26.063Z,19.85
2018-01-21T19:29:53.170Z,20.73
2018-01-21T19:32:19.576Z,22.30
2018-01-21T19:34:45.901Z,19.35
2018-01-21T19:37:13.160Z,16.45
2018-01-21T19:39:49.524Z,14.85
2018-01-21T19:42:15.985Z,16.87
2018-01-21T19:44:42.395Z,19.25
2018-01-21T19:47:08.774Z,24.27
2018-01-21T19:49:35.121Z,20.75
2018-01-21T19:52:01.472Z,22.40
2018-01-21T19:54:28.593Z,20.25
2018-01-21T19:56:54.934Z,21.08
2018-01-21T19:59:21.308Z,14.77
2018-01-21T20:01:47.648Z,17.20
2018-01-21T20:04:14.014Z,15.40
2018-01-21T20:06:41.157Z,11.75
2018-01-21T20:09:07.549Z,12.88
2018-01-21T20:11:33.938Z,11.55
2018-01-21T20:14:00.298Z,16.77
2018-01-21T20:16:27.436Z,19.02
2018-01-21T20:18:53.768Z,12.77
2018-01-21T20:21:20.179Z,17.25
2018-01-21T20:23:46.529Z,17.80
2018-01-21T20:26:12.945Z,17.30
2018-01-21T20:28:39.314Z,20.35
2018-01-21T20:31:05.726Z,38.10
2018-01-21T20:33:32.071Z,31.80
2018-01-21T20:35:59.166Z,30.23
2018-01-21T20:38:25.490Z,14.63
2018-01-21T20:40:51.859Z,14.77
2018-01-21T20:43:18.210Z,16.95
2018-01-21T20:45:44.545Z,17.12
2018-01-21T20:48:10.893Z,15.40
2018-01-21T20:50:37.236Z,19.40
2018-01-21T20:53:09.568Z,18.05
2018-01-21T20:55:43.649Z,16.87
2018-01-21T20:58:10.033Z,13.40
2018-01-21T21:00:37.118Z,15.65
2018-01-21T21:03:03.465Z,15.85
2018-01-21T21:05:29.835Z,13.57
2018-01-21T21:07:56.170Z,18.50
2018-01-21T21:10:22.526Z,17.87
2018-01-21T21:12:49.876Z,12.15
2018-01-21T21:15:16.272Z,20.62
2018-01-21T21:17:42.745Z,19.10
2018-01-21T21:20:09.140Z,13.25
2018-01-21T21:22:35.425Z,20.95
2018-01-21T21:25:02.623Z,15.98
2018-01-21T21:27:28.983Z,15.60
2018-01-21T21:29:55.338Z,15.20
2018-01-21T21:32:21.663Z,11.48
2018-01-21T21:34:47.974Z,15.90
2018-01-21T21:37:14.314Z,13.02
2018-01-21T21:39:40.686Z,13.00
2018-01-21T21:42:06.986Z,17.52
2018-01-21T21:44:34.009Z,19.17
2018-01-21T21:47:00.333Z,17.10
2018-01-21T21:49:26.607Z,18.48
2018-01-21T21:51:52.880Z,14.07
2018-01-21T21:54:19.207Z,12.10
2018-01-21T21:56:46.206Z,13.13
2018-01-21T21:59:12.786Z,11.63
2018-01-21T22:01:39.932Z,13.15
2018-01-21T22:04:06.199Z,10.57
2018-01-21T22:06:32.484Z,12.65
2018-01-21T22:08:58.747Z,17.50
2018-01-21T22:11:25.022Z,27.80
2018-01-21T22:13:51.281Z,25.05
2018-01-21T22:16:25.385Z,15.88
2018-01-21T22:18:51.649Z,18.58
2018-01-21T22:21:18.626Z,26.45
2018-01-21T22:23:44.876Z,17.17
2018-01-21T22:26:11.110Z,20.17
2018-01-21T22:28:37.368Z,22.02
2018-01-21T22:31:03.651Z,18.55
2018-01-21T22:33:29.917Z,23.33
2018-01-21T22:35:56.947Z,21.83
2018-01-21T22:38:23.156Z,20.30
2018-01-21T22:40:49.437Z,28.10
2018-01-21T22:43:15.708Z,19.35
2018-01-21T22:45:41.995Z,19.08
2018-01-21T22:48:08.246Z,23.95
2018-01-21T22:50:34.506Z,24.08
2018-01-21T22:53:01.494Z,17.62
2018-01-21T22:55:27.769Z,17.90
2018-01-21T22:57:54.037Z,17.85
2018-01-21T23:00:20.317Z,20.15
2018-01-21T23:02:46.557Z,20.92
2018-01-21T23:05:13.020Z,20.73
2018-01-21T23:07:39.348Z,18.90
2018-01-21T23:10:05.594Z,16.90
2018-01-21T23:12:31.859Z,19.40
2018-01-21T23:14:58.127Z,21.23
2018-01-21T23:17:24.371Z,23.58
2018-01-21T23:19:50.595Z,26.35
2018-01-21T23:22:16.846Z,28.05
2018-01-21T23:24:43.110Z,19.75
2018-01-21T23:27:10.111Z,21.20
2018-01-21T23:29:36.360Z,20.70
2018-01-21T23:32:02.606Z,25.80
2018-01-21T23:34:28.849Z,23.27
2018-01-21T23:36:55.075Z,23.15
2018-01-21T23:39:21.342Z,23.80
2018-01-21T23:41:47.561Z,23.15
2018-01-21T23:44:13.849Z,22.75
2018-01-21T23:46:40.845Z,20.67
2018-01-21T23:49:07.079Z,20.12
2018-01-21T23:51:33.346Z,21.77
2018-01-21T23:53:59.592Z,23.52
2018-01-21T23:56:25.846Z,22.05
2018-01-21T23:58:52.121Z,22.98
